createdAt,value
2023-03-27T00:03:04.536Z,56.30
2023-03-27T00:08:34.589Z,56.20
2023-03-27T00:14:00.608Z,55.80
2023-03-27T00:19:23.593Z,55.70
2023-03-27T00:24:46.598Z,55.50
2023-03-27T00:30:12.798Z,55.30
2023-03-27T00:35:38.591Z,55.30
2023-03-27T00:41:03.607Z,55.10
2023-03-27T00:46:38.649Z,55.20
2023-03-27T00:52:03.530Z,55.00
2023-03-27T00:57:28.512Z,55.10
2023-03-27T01:02:53.699Z,55.10
2023-03-27T01:08:19.634Z,55.10
2023-03-27T01:14:00.090Z,54.90
2023-03-27T01:19:49.613Z,54.80
2023-03-27T01:26:01.548Z,54.90
2023-03-27T01:31:38.625Z,54.90
2023-03-27T01:37:24.558Z,55.00
2023-03-27T01:42:55.601Z,55.00
2023-03-27T01:48:25.576Z,55.10
2023-03-27T01:53:54.521Z,55.00
2023-03-27T01:59:23.635Z,55.00
2023-03-27T02:04:53.637Z,55.10
2023-03-27T02:10:21.649Z,55.10
2023-03-27T02:15:49.550Z,55.10
2023-03-27T02:21:13.876Z,55.00
2023-03-27T02:26:37.684Z,55.00
2023-03-27T02:32:21.695Z,55.00
2023-03-27T02:37:55.653Z,55.00
2023-03-27T02:43:37.692Z,54.90
2023-03-27T02:49:13.632Z,54.90
2023-03-27T02:54:40.666Z,54.80
2023-03-27T03:00:13.641Z,54.90
2023-03-27T03:05:44.831Z,54.90
2023-03-27T03:11:09.915Z,55.10
2023-03-27T03:16:32.696Z,54.90
2023-03-27T03:21:57.834Z,54.90
2023-03-27T03:27:22.685Z,54.70
2023-03-27T03:32:53.700Z,54.80
2023-03-27T03:38:18.679Z,54.70
2023-03-27T03:43:43.717Z,54.70
2023-03-27T03:49:07.650Z,54.80
2023-03-27T03:54:32.643Z,54.70
2023-03-27T04:00:03.800Z,54.70
2023-03-27T04:05:43.045Z,54.50
2023-03-27T04:11:07.635Z,54.70
2023-03-27T04:16:58.664Z,54.90
2023-03-27T04:22:23.719Z,54.70
2023-03-27T04:27:49.649Z,54.80
2023-03-27T04:33:24.710Z,54.70
2023-03-27T04:39:16.782Z,54.80
2023-03-27T04:44:44.671Z,54.70
2023-03-27T04:50:08.706Z,54.60
2023-03-27T04:55:33.743Z,54.60
2023-03-27T05:01:02.849Z,54.70
2023-03-27T05:06:46.641Z,54.70
2023-03-27T05:12:09.868Z,54.70
2023-03-27T05:17:43.771Z,54.60
2023-03-27T05:23:06.752Z,54.60
2023-03-27T05:28:31.821Z,54.50
2023-03-27T05:34:01.436Z,54.50
2023-03-27T05:39:26.678Z,54.70
2023-03-27T05:44:50.722Z,54.80
2023-03-27T05:50:16.732Z,54.90
2023-03-27T05:55:43.031Z,54.90
2023-03-27T06:01:05.689Z,55.00
2023-03-27T06:06:30.685Z,55.00
2023-03-27T06:11:53.683Z,55.00
2023-03-27T06:17:16.763Z,55.10
2023-03-27T06:22:49.769Z,55.30
2023-03-27T06:28:19.749Z,55.30
2023-03-27T06:33:44.773Z,55.40
2023-03-27T06:39:26.698Z,55.40
2023-03-27T06:44:49.759Z,55.50
2023-03-27T06:50:34.757Z,55.50
2023-03-27T06:55:59.890Z,55.60
2023-03-27T07:01:44.039Z,55.70
2023-03-27T07:07:32.803Z,55.50
2023-03-27T07:12:58.702Z,55.30
2023-03-27T07:18:22.860Z,55.10
2023-03-27T07:23:45.775Z,55.20
2023-03-27T07:29:22.773Z,55.40
2023-03-27T07:34:45.755Z,55.40
2023-03-27T07:40:38.894Z,55.40
2023-03-27T07:46:34.796Z,55.60
2023-03-27T07:51:57.806Z,55.60
2023-03-27T07:57:24.892Z,55.80
2023-03-27T08:02:56.916Z,56.00
2023-03-27T08:08:20.800Z,56.10
2023-03-27T08:13:48.782Z,55.70
2023-03-27T08:19:13.969Z,55.50
2023-03-27T08:24:42.771Z,55.10
2023-03-27T08:30:21.999Z,55.00
2023-03-27T08:35:46.912Z,55.00
2023-03-27T08:41:14.037Z,55.10
2023-03-27T08:46:52.888Z,55.10
2023-03-27T08:52:25.860Z,54.60
2023-03-27T08:57:56.843Z,55.20
2023-03-27T09:03:28.045Z,55.00
2023-03-27T09:08:57.832Z,55.00
2023-03-27T09:14:28.861Z,55.10
2023-03-27T09:19:58.827Z,54.90
2023-03-27T09:25:34.858Z,54.30
2023-03-27T09:31:27.859Z,54.90
2023-03-27T09:36:55.805Z,55.10
2023-03-27T09:42:25.947Z,55.30
2023-03-27T09:47:55.833Z,54.80
2023-03-27T09:53:29.865Z,54.50
2023-03-27T09:59:03.861Z,54.50
2023-03-27T10:04:29.875Z,54.40
2023-03-27T10:09:53.989Z,54.10
2023-03-27T10:21:05.853Z,54.10
2023-03-27T10:26:34.858Z,54.20
2023-03-27T10:32:05.107Z,53.50
2023-03-27T10:37:35.356Z,53.10
2023-03-27T10:43:25.892Z,53.10
2023-03-27T10:49:00.927Z,53.50
2023-03-27T10:54:33.017Z,53.40
2023-03-27T11:00:02.874Z,53.80
2023-03-27T11:05:38.000Z,53.30
2023-03-27T11:11:31.984Z,52.50
2023-03-27T11:16:59.908Z,52.70
2023-03-27T11:22:49.134Z,53.10
2023-03-27T11:28:35.869Z,53.70
2023-03-27T11:34:03.019Z,54.30
2023-03-27T11:39:36.053Z,54.50
2023-03-27T11:45:01.885Z,54.70
2023-03-27T11:50:47.034Z,54.10
2023-03-27T11:56:23.092Z,53.80
2023-03-27T12:02:01.949Z,53.60
2023-03-27T12:07:42.118Z,54.20
2023-03-27T12:13:42.071Z,53.20
2023-03-27T12:19:48.995Z,52.70
2023-03-27T12:25:38.074Z,52.60
2023-03-27T12:31:46.946Z,52.50
2023-03-27T12:37:13.112Z,51.40
2023-03-27T12:43:03.939Z,51.60
2023-03-27T12:48:27.953Z,50.80
2023-03-27T12:54:09.028Z,51.00
2023-03-27T12:59:35.914Z,50.20
2023-03-27T13:05:37.997Z,50.70
2023-03-27T13:11:24.960Z,51.30
2023-03-27T13:17:08.905Z,50.10
2023-03-27T13:22:47.015Z,49.40
2023-03-27T13:28:41.007Z,49.60
2023-03-27T13:34:38.060Z,49.90
2023-03-27T13:40:15.031Z,49.90
2023-03-27T13:45:47.986Z,50.30
2023-03-27T13:51:42.200Z,50.40
2023-03-27T13:57:19.061Z,49.90
2023-03-27T14:03:29.257Z,49.20
2023-03-27T14:09:06.050Z,49.50
2023-03-27T14:15:02.008Z,50.30
2023-03-27T14:20:46.809Z,50.00
2023-03-27T14:26:12.965Z,49.70
2023-03-27T14:31:42.207Z,49.40
2023-03-27T14:37:36.090Z,49.60
2023-03-27T14:43:17.764Z,49.10
2023-03-27T14:48:46.077Z,49.00
2023-03-27T14:54:19.035Z,48.50
2023-03-27T14:59:47.063Z,48.30
2023-03-27T15:05:11.068Z,47.80
2023-03-27T15:10:42.152Z,48.10
2023-03-27T15:16:33.080Z,47.80
2023-03-27T15:22:03.097Z,47.80
2023-03-27T15:27:36.295Z,47.70
2023-03-27T15:33:02.320Z,47.80
2023-03-27T15:38:28.242Z,47.90
2023-03-27T15:43:56.140Z,48.10
2023-03-27T15:49:41.175Z,47.90
2023-03-27T15:55:05.132Z,47.20
2023-03-27T16:00:30.144Z,47.30
2023-03-27T16:05:54.185Z,47.40
2023-03-27T16:18:19.933Z,46.90
2023-03-27T16:23:23.287Z,47.10
2023-03-27T16:28:29.696Z,46.90
2023-03-27T16:33:38.865Z,47.30
2023-03-27T16:38:43.666Z,47.70
2023-03-27T16:43:51.149Z,48.20
2023-03-27T16:48:57.641Z,48.30
2023-03-27T16:54:01.462Z,48.60
2023-03-27T16:59:04.788Z,48.90
2023-03-27T17:04:22.718Z,49.20
2023-03-27T17:09:33.828Z,49.40
2023-03-27T17:14:37.148Z,49.30
2023-03-27T17:20:08.815Z,49.40
2023-03-27T17:25:12.941Z,49.20
2023-03-27T17:30:26.866Z,49.20
2023-03-27T17:35:54.924Z,49.10
2023-03-27T17:41:03.571Z,48.80
2023-03-27T17:46:11.974Z,49.00
2023-03-27T17:51:32.310Z,48.90
2023-03-27T18:03:10.076Z,48.90
2023-03-27T18:08:22.082Z,49.00
2023-03-27T18:13:52.181Z,49.20
2023-03-27T18:19:21.103Z,49.60
2023-03-27T18:24:37.642Z,50.20
2023-03-27T18:29:46.993Z,50.00
2023-03-27T18:34:55.461Z,50.10
2023-03-27T18:40:07.985Z,50.90
2023-03-27T18:45:12.637Z,50.20
2023-03-27T18:50:24.647Z,50.20
2023-03-27T18:55:29.441Z,50.10
2023-03-27T19:00:46.986Z,50.10
2023-03-27T19:05:53.165Z,50.00
2023-03-27T19:11:05.242Z,50.20
2023-03-27T19:16:32.713Z,50.30
2023-03-27T19:21:55.946Z,50.40
2023-03-27T19:27:23.919Z,50.50
2023-03-27T19:32:30.740Z,50.70
2023-03-27T19:37:51.802Z,50.90
2023-03-27T19:43:02.194Z,51.30
2023-03-27T19:48:06.616Z,51.10
2023-03-27T19:53:10.404Z,51.10
2023-03-27T19:58:27.275Z,51.20
2023-03-27T20:03:41.417Z,51.20
2023-03-27T20:08:44.729Z,51.10
2023-03-27T20:13:56.598Z,51.10
2023-03-27T20:19:06.022Z,51.80
2023-03-27T20:24:11.218Z,50.90
2023-03-27T20:29:22.683Z,50.90
2023-03-27T20:34:26.017Z,50.90
2023-03-27T20:39:29.425Z,51.00
2023-03-27T20:44:36.078Z,51.10
2023-03-27T20:49:42.841Z,51.10
2023-03-27T20:54:47.593Z,51.10
2023-03-27T20:59:56.519Z,51.00
2023-03-27T21:04:59.641Z,51.00
2023-03-27T21:10:02.759Z,51.10
2023-03-27T21:15:08.443Z,51.10
2023-03-27T21:20:12.421Z,50.90
2023-03-27T21:25:15.747Z,50.90
2023-03-27T21:30:20.483Z,50.90
2023-03-27T21:35:23.868Z,50.90
2023-03-27T21:40:27.194Z,51.60
2023-03-27T21:45:32.205Z,50.90
2023-03-27T21:50:37.591Z,50.90
2023-03-27T21:55:41.204Z,50.90
2023-03-27T22:00:47.444Z,51.00
2023-03-27T22:05:57.737Z,51.10
2023-03-27T22:11:12.949Z,51.10
2023-03-27T22:16:18.829Z,51.10
2023-03-27T22:21:25.265Z,51.20
2023-03-27T22:26:30.864Z,51.10
2023-03-27T22:31:36.015Z,51.30
2023-03-27T22:36:39.266Z,51.40
2023-03-27T22:41:43.233Z,51.40
2023-03-27T22:46:47.849Z,51.40
2023-03-27T22:51:53.224Z,51.40
2023-03-27T22:56:56.491Z,51.30
2023-03-27T23:02:01.258Z,51.30
2023-03-27T23:07:04.750Z,51.30
2023-03-27T23:12:08.054Z,51.30
2023-03-27T23:17:12.532Z,51.30
2023-03-27T23:22:15.829Z,51.40
2023-03-27T23:27:18.961Z,51.50
2023-03-27T23:32:25.604Z,51.50
2023-03-27T23:37:30.566Z,51.50
2023-03-27T23:42:33.688Z,52.30
2023-03-27T23:47:38.315Z,51.70
2023-03-27T23:52:43.542Z,51.80
2023-03-27T23:57:48.451Z,51.80
